sensor_id;sensor_type;location;lat;lon;timestamp;P1;durP1;ratioP1;P2;durP2;ratioP2
3261;SDS011;1643;47.746;9.000;2022-09-16T00:01:15;2.70;;;2.50;;
3261;SDS011;1643;47.746;9.000;2022-09-16T00:03:42;3.63;;;2.70;;
3261;SDS011;1643;47.746;9.000;2022-09-16T00:06:27;3.00;;;2.80;;
3261;SDS011;1643;47.746;9.000;2022-09-16T00:08:54;2.93;;;2.70;;
3261;SDS011;1643;47.746;9.000;2022-09-16T00:11:22;2.57;;;2.37;;
3261;SDS011;1643;47.746;9.000;2022-09-16T00:13:48;2.67;;;2.47;;
3261;SDS011;1643;47.746;9.000;2022-09-16T00:16:23;3.40;;;2.50;;
3261;SDS011;1643;47.746;9.000;2022-09-16T00:18:58;4.80;;;3.10;;
3261;SDS011;1643;47.746;9.000;2022-09-16T00:21:25;3.30;;;3.00;;
3261;SDS011;1643;47.746;9.000;2022-09-16T00:23:51;4.40;;;2.60;;
3261;SDS011;1643;47.746;9.000;2022-09-16T00:26:17;5.07;;;2.40;;
3261;SDS011;1643;47.746;9.000;2022-09-16T00:28:43;2.97;;;2.70;;
3261;SDS011;1643;47.746;9.000;2022-09-16T00:31:11;2.87;;;2.57;;
3261;SDS011;1643;47.746;9.000;2022-09-16T00:33:37;4.83;;;3.20;;
3261;SDS011;1643;47.746;9.000;2022-09-16T00:36:10;3.13;;;2.83;;
3261;SDS011;1643;47.746;9.000;2022-09-16T00:38:37;3.90;;;2.80;;
3261;SDS011;1643;47.746;9.000;2022-09-16T00:41:04;3.20;;;2.90;;
3261;SDS011;1643;47.746;9.000;2022-09-16T00:43:50;3.73;;;2.57;;
3261;SDS011;1643;47.746;9.000;2022-09-16T00:46:16;2.63;;;2.40;;
3261;SDS011;1643;47.746;9.000;2022-09-16T00:48:49;2.40;;;2.20;;
3261;SDS011;1643;47.746;9.000;2022-09-16T00:51:15;2.90;;;2.60;;
3261;SDS011;1643;47.746;9.000;2022-09-16T00:53:56;5.20;;;2.60;;
3261;SDS011;1643;47.746;9.000;2022-09-16T00:56:26;3.17;;;2.70;;
3261;SDS011;1643;47.746;9.000;2022-09-16T01:01:20;3.13;;;2.83;;
3261;SDS011;1643;47.746;9.000;2022-09-16T01:03:50;2.60;;;2.20;;
3261;SDS011;1643;47.746;9.000;2022-09-16T01:06:19;3.20;;;2.90;;
3261;SDS011;1643;47.746;9.000;2022-09-16T01:08:47;3.80;;;2.53;;
3261;SDS011;1643;47.746;9.000;2022-09-16T01:11:14;2.83;;;2.63;;
3261;SDS011;1643;47.746;9.000;2022-09-16T01:13:39;2.20;;;2.10;;
3261;SDS011;1643;47.746;9.000;2022-09-16T01:16:40;3.03;;;2.40;;
3261;SDS011;1643;47.746;9.000;2022-09-16T01:19:14;2.43;;;2.30;;
3261;SDS011;1643;47.746;9.000;2022-09-16T01:27:41;3.53;;;2.93;;
3261;SDS011;1643;47.746;9.000;2022-09-16T01:32:59;10.60;;;4.67;;
3261;SDS011;1643;47.746;9.000;2022-09-16T01:35:39;6.03;;;2.60;;
3261;SDS011;1643;47.746;9.000;2022-09-16T01:41:05;2.80;;;2.60;;
3261;SDS011;1643;47.746;9.000;2022-09-16T01:43:44;3.43;;;3.13;;
3261;SDS011;1643;47.746;9.000;2022-09-16T01:49:01;2.90;;;2.70;;
3261;SDS011;1643;47.746;9.000;2022-09-16T01:54:43;4.17;;;2.73;;
3261;SDS011;1643;47.746;9.000;2022-09-16T01:57:18;3.63;;;2.80;;
3261;SDS011;1643;47.746;9.000;2022-09-16T01:59:58;3.43;;;3.13;;
3261;SDS011;1643;47.746;9.000;2022-09-16T02:05:35;4.10;;;3.27;;
3261;SDS011;1643;47.746;9.000;2022-09-16T02:08:05;3.30;;;3.00;;
3261;SDS011;1643;47.746;9.000;2022-09-16T02:10:40;2.97;;;2.77;;
3261;SDS011;1643;47.746;9.000;2022-09-16T02:13:18;3.67;;;3.27;;
3261;SDS011;1643;47.746;9.000;2022-09-16T02:15:51;2.90;;;2.70;;
3261;SDS011;1643;47.746;9.000;2022-09-16T02:18:20;3.20;;;2.90;;
3261;SDS011;1643;47.746;9.000;2022-09-16T02:20:49;3.07;;;2.77;;
3261;SDS011;1643;47.746;9.000;2022-09-16T02:23:20;3.50;;;2.90;;
3261;SDS011;1643;47.746;9.000;2022-09-16T02:25:49;3.50;;;3.20;;
3261;SDS011;1643;47.746;9.000;2022-09-16T02:28:24;2.70;;;2.50;;
3261;SDS011;1643;47.746;9.000;2022-09-16T02:30:55;2.70;;;2.47;;
3261;SDS011;1643;47.746;9.000;2022-09-16T02:33:24;3.50;;;3.20;;
3261;SDS011;1643;47.746;9.000;2022-09-16T02:35:55;4.27;;;3.00;;
3261;SDS011;1643;47.746;9.000;2022-09-16T02:38:23;2.60;;;2.40;;
3261;SDS011;1643;47.746;9.000;2022-09-16T02:40:57;3.23;;;2.93;;
3261;SDS011;1643;47.746;9.000;2022-09-16T02:43:24;3.87;;;2.40;;
3261;SDS011;1643;47.746;9.000;2022-09-16T02:48:27;4.23;;;2.80;;
3261;SDS011;1643;47.746;9.000;2022-09-16T02:51:12;5.90;;;3.60;;
3261;SDS011;1643;47.746;9.000;2022-09-16T02:54:04;3.40;;;3.10;;
3261;SDS011;1643;47.746;9.000;2022-09-16T02:56:33;4.67;;;3.30;;
3261;SDS011;1643;47.746;9.000;2022-09-16T02:59:01;3.83;;;2.93;;
3261;SDS011;1643;47.746;9.000;2022-09-16T03:01:30;3.63;;;3.10;;
3261;SDS011;1643;47.746;9.000;2022-09-16T03:04:01;3.50;;;3.20;;
3261;SDS011;1643;47.746;9.000;2022-09-16T03:06:27;4.27;;;2.73;;
3261;SDS011;1643;47.746;9.000;2022-09-16T03:09:00;3.90;;;3.00;;
3261;SDS011;1643;47.746;9.000;2022-09-16T03:16:35;3.00;;;2.80;;
3261;SDS011;1643;47.746;9.000;2022-09-16T03:22:17;3.40;;;2.50;;
3261;SDS011;1643;47.746;9.000;2022-09-16T03:27:49;8.33;;;2.77;;
3261;SDS011;1643;47.746;9.000;2022-09-16T03:30:18;3.47;;;3.17;;
3261;SDS011;1643;47.746;9.000;2022-09-16T03:35:25;4.43;;;2.90;;
3261;SDS011;1643;47.746;9.000;2022-09-16T03:37:56;4.53;;;2.87;;
3261;SDS011;1643;47.746;9.000;2022-09-16T03:40:23;3.30;;;3.00;;
3261;SDS011;1643;47.746;9.000;2022-09-16T03:42:50;3.40;;;3.10;;
3261;SDS011;1643;47.746;9.000;2022-09-16T03:45:17;3.40;;;3.10;;
3261;SDS011;1643;47.746;9.000;2022-09-16T03:47:44;4.13;;;3.23;;
3261;SDS011;1643;47.746;9.000;2022-09-16T03:50:12;3.20;;;2.90;;
3261;SDS011;1643;47.746;9.000;2022-09-16T03:52:38;2.93;;;2.70;;
3261;SDS011;1643;47.746;9.000;2022-09-16T03:55:04;2.63;;;2.43;;
3261;SDS011;1643;47.746;9.000;2022-09-16T03:57:31;3.40;;;3.10;;
3261;SDS011;1643;47.746;9.000;2022-09-16T03:59:57;8.00;;;3.37;;
3261;SDS011;1643;47.746;9.000;2022-09-16T04:02:23;3.07;;;2.77;;
3261;SDS011;1643;47.746;9.000;2022-09-16T04:04:48;4.40;;;2.97;;
3261;SDS011;1643;47.746;9.000;2022-09-16T04:07:14;5.23;;;3.40;;
3261;SDS011;1643;47.746;9.000;2022-09-16T04:09:40;6.20;;;3.20;;
3261;SDS011;1643;47.746;9.000;2022-09-16T04:12:06;4.60;;;3.60;;
3261;SDS011;1643;47.746;9.000;2022-09-16T04:14:32;5.47;;;3.87;;
3261;SDS011;1643;47.746;9.000;2022-09-16T04:16:58;6.00;;;4.07;;
3261;SDS011;1643;47.746;9.000;2022-09-16T04:19:24;4.07;;;3.57;;
3261;SDS011;1643;47.746;9.000;2022-09-16T04:21:50;4.40;;;3.93;;
3261;SDS011;1643;47.746;9.000;2022-09-16T04:24:15;5.43;;;3.33;;
3261;SDS011;1643;47.746;9.000;2022-09-16T04:26:41;5.17;;;3.90;;
3261;SDS011;1643;47.746;9.000;2022-09-16T04:29:07;4.83;;;3.53;;
3261;SDS011;1643;47.746;9.000;2022-09-16T04:31:32;4.40;;;3.57;;
3261;SDS011;1643;47.746;9.000;2022-09-16T04:33:59;4.70;;;3.80;;
3261;SDS011;1643;47.746;9.000;2022-09-16T04:36:26;4.27;;;3.50;;
3261;SDS011;1643;47.746;9.000;2022-09-16T04:38:51;5.00;;;3.43;;
3261;SDS011;1643;47.746;9.000;2022-09-16T04:41:21;4.27;;;3.33;;
3261;SDS011;1643;47.746;9.000;2022-09-16T04:43:51;4.90;;;3.90;;
3261;SDS011;1643;47.746;9.000;2022-09-16T04:46:21;3.23;;;3.00;;
3261;SDS011;1643;47.746;9.000;2022-09-16T04:48:48;5.23;;;3.57;;
3261;SDS011;1643;47.746;9.000;2022-09-16T04:51:15;4.13;;;3.73;;
3261;SDS011;1643;47.746;9.000;2022-09-16T04:53:41;3.90;;;3.13;;
3261;SDS011;1643;47.746;9.000;2022-09-16T04:56:14;3.50;;;3.17;;
3261;SDS011;1643;47.746;9.000;2022-09-16T04:58:44;3.30;;;3.00;;
3261;SDS011;1643;47.746;9.000;2022-09-16T05:01:13;3.10;;;2.90;;
3261;SDS011;1643;47.746;9.000;2022-09-16T05:03:44;4.03;;;3.43;;
3261;SDS011;1643;47.746;9.000;2022-09-16T05:06:22;3.53;;;3.23;;
3261;SDS011;1643;47.746;9.000;2022-09-16T05:08:50;4.00;;;3.37;;
3261;SDS011;1643;47.746;9.000;2022-09-16T05:11:19;3.80;;;3.50;;
3261;SDS011;1643;47.746;9.000;2022-09-16T05:13:49;4.27;;;3.23;;
3261;SDS011;1643;47.746;9.000;2022-09-16T05:16:19;3.37;;;3.07;;
3261;SDS011;1643;47.746;9.000;2022-09-16T05:18:47;3.50;;;3.00;;
3261;SDS011;1643;47.746;9.000;2022-09-16T05:21:17;4.43;;;3.50;;
3261;SDS011;1643;47.746;9.000;2022-09-16T05:23:45;6.43;;;3.37;;
3261;SDS011;1643;47.746;9.000;2022-09-16T05:26:12;5.57;;;3.40;;
3261;SDS011;1643;47.746;9.000;2022-09-16T05:28:39;6.73;;;3.10;;
3261;SDS011;1643;47.746;9.000;2022-09-16T05:31:06;3.10;;;2.80;;
3261;SDS011;1643;47.746;9.000;2022-09-16T05:33:36;4.23;;;3.50;;
3261;SDS011;1643;47.746;9.000;2022-09-16T05:36:07;3.97;;;3.50;;
3261;SDS011;1643;47.746;9.000;2022-09-16T05:38:35;5.40;;;3.33;;
3261;SDS011;1643;47.746;9.000;2022-09-16T05:41:01;3.23;;;3.00;;
3261;SDS011;1643;47.746;9.000;2022-09-16T05:43:27;3.73;;;3.33;;
3261;SDS011;1643;47.746;9.000;2022-09-16T05:45:54;3.70;;;3.40;;
3261;SDS011;1643;47.746;9.000;2022-09-16T05:48:20;4.63;;;3.40;;
3261;SDS011;1643;47.746;9.000;2022-09-16T05:53:18;3.23;;;2.93;;
3261;SDS011;1643;47.746;9.000;2022-09-16T05:55:57;4.23;;;3.83;;
3261;SDS011;1643;47.746;9.000;2022-09-16T05:58:27;4.10;;;3.70;;
3261;SDS011;1643;47.746;9.000;2022-09-16T06:01:00;3.53;;;3.17;;
3261;SDS011;1643;47.746;9.000;2022-09-16T06:03:27;3.83;;;3.43;;
3261;SDS011;1643;47.746;9.000;2022-09-16T06:06:39;3.93;;;3.23;;
3261;SDS011;1643;47.746;9.000;2022-09-16T06:08:53;4.30;;;3.90;;
3261;SDS011;1643;47.746;9.000;2022-09-16T06:11:30;3.97;;;3.60;;
3261;SDS011;1643;47.746;9.000;2022-09-16T06:13:57;3.97;;;3.47;;
3261;SDS011;1643;47.746;9.000;2022-09-16T06:16:27;3.40;;;3.17;;
3261;SDS011;1643;47.746;9.000;2022-09-16T06:18:56;4.10;;;3.70;;
3261;SDS011;1643;47.746;9.000;2022-09-16T06:21:23;5.40;;;3.53;;
3261;SDS011;1643;47.746;9.000;2022-09-16T06:23:49;4.33;;;3.90;;
3261;SDS011;1643;47.746;9.000;2022-09-16T06:26:16;4.50;;;3.70;;
3261;SDS011;1643;47.746;9.000;2022-09-16T06:28:43;7.63;;;3.83;;
3261;SDS011;1643;47.746;9.000;2022-09-16T06:31:16;6.13;;;3.90;;
3261;SDS011;1643;47.746;9.000;2022-09-16T06:33:46;4.90;;;4.40;;
3261;SDS011;1643;47.746;9.000;2022-09-16T06:36:35;4.40;;;4.00;;
3261;SDS011;1643;47.746;9.000;2022-09-16T06:39:01;5.60;;;4.37;;
3261;SDS011;1643;47.746;9.000;2022-09-16T06:41:29;4.80;;;4.30;;
3261;SDS011;1643;47.746;9.000;2022-09-16T06:43:56;5.37;;;4.10;;
3261;SDS011;1643;47.746;9.000;2022-09-16T06:46:25;4.13;;;3.73;;
3261;SDS011;1643;47.746;9.000;2022-09-16T06:48:53;4.77;;;3.60;;
3261;SDS011;1643;47.746;9.000;2022-09-16T06:51:23;4.43;;;4.03;;
3261;SDS011;1643;47.746;9.000;2022-09-16T06:53:51;4.40;;;3.57;;
3261;SDS011;1643;47.746;9.000;2022-09-16T06:56:18;4.33;;;3.93;;
3261;SDS011;1643;47.746;9.000;2022-09-16T06:58:46;4.30;;;3.90;;
3261;SDS011;1643;47.746;9.000;2022-09-16T07:01:21;6.23;;;4.37;;
3261;SDS011;1643;47.746;9.000;2022-09-16T07:03:49;4.20;;;3.80;;
3261;SDS011;1643;47.746;9.000;2022-09-16T07:06:17;4.00;;;3.50;;
3261;SDS011;1643;47.746;9.000;2022-09-16T07:08:44;4.10;;;3.70;;
3261;SDS011;1643;47.746;9.000;2022-09-16T07:11:12;4.37;;;3.80;;
3261;SDS011;1643;47.746;9.000;2022-09-16T07:13:39;7.10;;;4.23;;
3261;SDS011;1643;47.746;9.000;2022-09-16T07:16:07;6.63;;;4.20;;
3261;SDS011;1643;47.746;9.000;2022-09-16T07:18:35;5.47;;;4.33;;
3261;SDS011;1643;47.746;9.000;2022-09-16T07:23:28;4.93;;;4.40;;
3261;SDS011;1643;47.746;9.000;2022-09-16T07:25:59;4.00;;;3.63;;
3261;SDS011;1643;47.746;9.000;2022-09-16T07:28:30;5.70;;;3.90;;
3261;SDS011;1643;47.746;9.000;2022-09-16T07:30:59;4.50;;;3.80;;
3261;SDS011;1643;47.746;9.000;2022-09-16T07:33:26;4.60;;;4.20;;
3261;SDS011;1643;47.746;9.000;2022-09-16T07:35:52;4.10;;;3.80;;
3261;SDS011;1643;47.746;9.000;2022-09-16T07:38:21;4.27;;;3.87;;
3261;SDS011;1643;47.746;9.000;2022-09-16T07:40:46;4.87;;;3.90;;
3261;SDS011;1643;47.746;9.000;2022-09-16T07:43:12;3.80;;;3.40;;
3261;SDS011;1643;47.746;9.000;2022-09-16T07:45:38;4.13;;;3.70;;
3261;SDS011;1643;47.746;9.000;2022-09-16T07:48:03;4.40;;;4.00;;
3261;SDS011;1643;47.746;9.000;2022-09-16T07:50:29;4.80;;;4.40;;
3261;SDS011;1643;47.746;9.000;2022-09-16T07:52:54;3.83;;;3.43;;
3261;SDS011;1643;47.746;9.000;2022-09-16T07:55:20;4.70;;;4.30;;
3261;SDS011;1643;47.746;9.000;2022-09-16T07:57:46;6.60;;;4.70;;
3261;SDS011;1643;47.746;9.000;2022-09-16T08:00:11;5.00;;;4.50;;
3261;SDS011;1643;47.746;9.000;2022-09-16T08:02:37;6.43;;;4.17;;
3261;SDS011;1643;47.746;9.000;2022-09-16T08:05:03;4.93;;;4.40;;
3261;SDS011;1643;47.746;9.000;2022-09-16T08:07:29;5.63;;;5.13;;
3261;SDS011;1643;47.746;9.000;2022-09-16T08:09:55;5.83;;;5.20;;
3261;SDS011;1643;47.746;9.000;2022-09-16T08:12:20;5.03;;;4.60;;
3261;SDS011;1643;47.746;9.000;2022-09-16T08:14:46;5.60;;;4.57;;
3261;SDS011;1643;47.746;9.000;2022-09-16T08:17:11;4.87;;;4.47;;
3261;SDS011;1643;47.746;9.000;2022-09-16T08:19:37;5.07;;;4.20;;
3261;SDS011;1643;47.746;9.000;2022-09-16T08:22:04;5.40;;;4.90;;
3261;SDS011;1643;47.746;9.000;2022-09-16T08:24:29;4.23;;;3.83;;
3261;SDS011;1643;47.746;9.000;2022-09-16T08:26:55;7.03;;;4.90;;
3261;SDS011;1643;47.746;9.000;2022-09-16T08:29:21;6.60;;;4.67;;
3261;SDS011;1643;47.746;9.000;2022-09-16T08:31:49;5.87;;;5.27;;
3261;SDS011;1643;47.746;9.000;2022-09-16T08:34:14;5.30;;;4.70;;
3261;SDS011;1643;47.746;9.000;2022-09-16T08:36:40;6.50;;;4.03;;
3261;SDS011;1643;47.746;9.000;2022-09-16T08:39:06;5.93;;;4.07;;
3261;SDS011;1643;47.746;9.000;2022-09-16T08:47:42;6.43;;;4.00;;
3261;SDS011;1643;47.746;9.000;2022-09-16T08:50:23;5.23;;;3.83;;
3261;SDS011;1643;47.746;9.000;2022-09-16T08:52:53;3.73;;;3.43;;
3261;SDS011;1643;47.746;9.000;2022-09-16T08:55:25;6.70;;;3.60;;
3261;SDS011;1643;47.746;9.000;2022-09-16T09:00:39;7.00;;;4.77;;
3261;SDS011;1643;47.746;9.000;2022-09-16T09:03:12;8.27;;;4.50;;
3261;SDS011;1643;47.746;9.000;2022-09-16T09:08:18;7.40;;;3.70;;
3261;SDS011;1643;47.746;9.000;2022-09-16T09:13:29;5.33;;;4.27;;
3261;SDS011;1643;47.746;9.000;2022-09-16T09:16:00;4.70;;;3.37;;
3261;SDS011;1643;47.746;9.000;2022-09-16T09:18:39;3.03;;;2.83;;
3261;SDS011;1643;47.746;9.000;2022-09-16T09:21:30;3.97;;;3.03;;
3261;SDS011;1643;47.746;9.000;2022-09-16T09:24:20;4.83;;;3.53;;
3261;SDS011;1643;47.746;9.000;2022-09-16T09:27:16;4.03;;;3.63;;
3261;SDS011;1643;47.746;9.000;2022-09-16T09:32:45;3.70;;;2.97;;
3261;SDS011;1643;47.746;9.000;2022-09-16T09:41:44;4.40;;;3.50;;
3261;SDS011;1643;47.746;9.000;2022-09-16T09:43:56;4.33;;;3.30;;
3261;SDS011;1643;47.746;9.000;2022-09-16T09:46:39;3.20;;;2.90;;
3261;SDS011;1643;47.746;9.000;2022-09-16T09:51:59;3.93;;;3.03;;
3261;SDS011;1643;47.746;9.000;2022-09-16T09:54:36;3.10;;;2.80;;
3261;SDS011;1643;47.746;9.000;2022-09-16T09:57:11;4.33;;;3.03;;
3261;SDS011;1643;47.746;9.000;2022-09-16T10:02:30;4.10;;;2.90;;
3261;SDS011;1643;47.746;9.000;2022-09-16T10:04:56;2.27;;;1.93;;
3261;SDS011;1643;47.746;9.000;2022-09-16T10:07:22;4.93;;;1.30;;
3261;SDS011;1643;47.746;9.000;2022-09-16T10:09:55;1.37;;;1.20;;
3261;SDS011;1643;47.746;9.000;2022-09-16T10:12:25;2.10;;;1.23;;
3261;SDS011;1643;47.746;9.000;2022-09-16T10:15:00;1.20;;;0.97;;
3261;SDS011;1643;47.746;9.000;2022-09-16T10:17:27;1.40;;;1.30;;
3261;SDS011;1643;47.746;9.000;2022-09-16T10:20:03;1.37;;;1.20;;
3261;SDS011;1643;47.746;9.000;2022-09-16T10:22:32;3.40;;;1.30;;
3261;SDS011;1643;47.746;9.000;2022-09-16T10:27:29;1.43;;;1.33;;
3261;SDS011;1643;47.746;9.000;2022-09-16T10:32:46;1.10;;;0.90;;
3261;SDS011;1643;47.746;9.000;2022-09-16T10:35:16;3.83;;;1.00;;
3261;SDS011;1643;47.746;9.000;2022-09-16T10:37:55;0.83;;;0.80;;
3261;SDS011;1643;47.746;9.000;2022-09-16T10:40:23;0.90;;;0.80;;
3261;SDS011;1643;47.746;9.000;2022-09-16T10:42:50;1.13;;;0.90;;
3261;SDS011;1643;47.746;9.000;2022-09-16T10:45:34;1.00;;;1.00;;
3261;SDS011;1643;47.746;9.000;2022-09-16T10:48:10;0.90;;;0.90;;
3261;SDS011;1643;47.746;9.000;2022-09-16T10:50:50;1.23;;;1.13;;
3261;SDS011;1643;47.746;9.000;2022-09-16T10:53:33;1.37;;;1.27;;
3261;SDS011;1643;47.746;9.000;2022-09-16T10:56:05;1.20;;;1.10;;
3261;SDS011;1643;47.746;9.000;2022-09-16T10:58:40;1.00;;;0.90;;
3261;SDS011;1643;47.746;9.000;2022-09-16T11:01:15;1.43;;;1.33;;
3261;SDS011;1643;47.746;9.000;2022-09-16T11:10:02;1.00;;;1.00;;
3261;SDS011;1643;47.746;9.000;2022-09-16T11:23:45;1.30;;;1.20;;
3261;SDS011;1643;47.746;9.000;2022-09-16T11:34:48;1.67;;;1.10;;
3261;SDS011;1643;47.746;9.000;2022-09-16T11:37:32;1.67;;;1.57;;
3261;SDS011;1643;47.746;9.000;2022-09-16T11:48:55;2.63;;;1.50;;
3261;SDS011;1643;47.746;9.000;2022-09-16T11:54:17;2.00;;;1.90;;
3261;SDS011;1643;47.746;9.000;2022-09-16T11:56:51;2.23;;;1.90;;
3261;SDS011;1643;47.746;9.000;2022-09-16T11:59:26;2.00;;;1.80;;
3261;SDS011;1643;47.746;9.000;2022-09-16T12:02:00;1.73;;;1.63;;
3261;SDS011;1643;47.746;9.000;2022-09-16T12:04:50;2.10;;;2.00;;
3261;SDS011;1643;47.746;9.000;2022-09-16T12:07:34;1.83;;;1.73;;
3261;SDS011;1643;47.746;9.000;2022-09-16T12:12:54;2.77;;;1.80;;
3261;SDS011;1643;47.746;9.000;2022-09-16T12:15:44;1.83;;;1.73;;
3261;SDS011;1643;47.746;9.000;2022-09-16T12:18:23;3.20;;;1.90;;
3261;SDS011;1643;47.746;9.000;2022-09-16T12:21:10;1.90;;;1.80;;
3261;SDS011;1643;47.746;9.000;2022-09-16T12:23:55;2.10;;;1.90;;
3261;SDS011;1643;47.746;9.000;2022-09-16T12:26:35;1.90;;;1.80;;
3261;SDS011;1643;47.746;9.000;2022-09-16T12:29:14;2.00;;;1.90;;
3261;SDS011;1643;47.746;9.000;2022-09-16T12:32:04;2.00;;;1.90;;
3261;SDS011;1643;47.746;9.000;2022-09-16T12:34:38;2.63;;;1.87;;
3261;SDS011;1643;47.746;9.000;2022-09-16T12:40:00;1.70;;;1.60;;
3261;SDS011;1643;47.746;9.000;2022-09-16T12:56:10;1.73;;;1.63;;
3261;SDS011;1643;47.746;9.000;2022-09-16T12:58:57;2.40;;;2.20;;
3261;SDS011;1643;47.746;9.000;2022-09-16T13:01:41;2.13;;;1.93;;
3261;SDS011;1643;47.746;9.000;2022-09-16T13:07:02;1.90;;;1.80;;
3261;SDS011;1643;47.746;9.000;2022-09-16T13:09:35;2.90;;;1.80;;
3261;SDS011;1643;47.746;9.000;2022-09-16T13:12:04;2.00;;;1.80;;
3261;SDS011;1643;47.746;9.000;2022-09-16T13:17:13;2.30;;;2.17;;
3261;SDS011;1643;47.746;9.000;2022-09-16T13:19:40;2.00;;;1.90;;
3261;SDS011;1643;47.746;9.000;2022-09-16T13:28:21;4.13;;;2.37;;
3261;SDS011;1643;47.746;9.000;2022-09-16T13:33:40;3.17;;;2.80;;
3261;SDS011;1643;47.746;9.000;2022-09-16T13:38:53;2.10;;;1.87;;
3261;SDS011;1643;47.746;9.000;2022-09-16T13:47:05;4.77;;;2.03;;
3261;SDS011;1643;47.746;9.000;2022-09-16T13:52:18;2.73;;;1.90;;
3261;SDS011;1643;47.746;9.000;2022-09-16T13:54:55;2.23;;;2.10;;
3261;SDS011;1643;47.746;9.000;2022-09-16T14:00:36;2.60;;;1.90;;
3261;SDS011;1643;47.746;9.000;2022-09-16T14:03:30;5.90;;;2.23;;
3261;SDS011;1643;47.746;9.000;2022-09-16T14:11:19;2.60;;;2.40;;
3261;SDS011;1643;47.746;9.000;2022-09-16T14:14:28;2.67;;;2.47;;
3261;SDS011;1643;47.746;9.000;2022-09-16T14:16:49;2.27;;;2.07;;
3261;SDS011;1643;47.746;9.000;2022-09-16T14:19:25;3.33;;;2.20;;
3261;SDS011;1643;47.746;9.000;2022-09-16T14:22:26;2.17;;;2.00;;
3261;SDS011;1643;47.746;9.000;2022-09-16T14:24:46;2.50;;;2.30;;
3261;SDS011;1643;47.746;9.000;2022-09-16T14:27:28;2.47;;;2.27;;
3261;SDS011;1643;47.746;9.000;2022-09-16T14:30:03;1.80;;;1.70;;
3261;SDS011;1643;47.746;9.000;2022-09-16T14:32:41;3.13;;;2.23;;
3261;SDS011;1643;47.746;9.000;2022-09-16T14:35:11;2.43;;;2.10;;
3261;SDS011;1643;47.746;9.000;2022-09-16T14:37:46;3.30;;;2.43;;
3261;SDS011;1643;47.746;9.000;2022-09-16T14:40:16;3.20;;;2.40;;
3261;SDS011;1643;47.746;9.000;2022-09-16T14:42:46;3.43;;;2.43;;
3261;SDS011;1643;47.746;9.000;2022-09-16T14:45:16;2.40;;;2.20;;
3261;SDS011;1643;47.746;9.000;2022-09-16T14:47:42;2.33;;;2.13;;
3261;SDS011;1643;47.746;9.000;2022-09-16T14:50:12;2.53;;;2.33;;
3261;SDS011;1643;47.746;9.000;2022-09-16T14:52:51;1.80;;;1.70;;
3261;SDS011;1643;47.746;9.000;2022-09-16T14:55:23;2.13;;;1.93;;
3261;SDS011;1643;47.746;9.000;2022-09-16T14:57:50;2.50;;;2.30;;
3261;SDS011;1643;47.746;9.000;2022-09-16T15:00:16;3.90;;;2.57;;
3261;SDS011;1643;47.746;9.000;2022-09-16T15:07:47;2.33;;;2.20;;
3261;SDS011;1643;47.746;9.000;2022-09-16T15:10:32;2.30;;;2.13;;
3261;SDS011;1643;47.746;9.000;2022-09-16T15:12:58;2.63;;;1.97;;
3261;SDS011;1643;47.746;9.000;2022-09-16T15:15:28;2.67;;;2.47;;
3261;SDS011;1643;47.746;9.000;2022-09-16T15:18:01;2.57;;;2.20;;
3261;SDS011;1643;47.746;9.000;2022-09-16T15:20:47;2.20;;;2.10;;
3261;SDS011;1643;47.746;9.000;2022-09-16T15:23:22;2.03;;;1.80;;
3261;SDS011;1643;47.746;9.000;2022-09-16T15:25:58;3.33;;;2.17;;
3261;SDS011;1643;47.746;9.000;2022-09-16T15:28:31;3.93;;;2.20;;
3261;SDS011;1643;47.746;9.000;2022-09-16T15:30:57;4.80;;;2.20;;
3261;SDS011;1643;47.746;9.000;2022-09-16T15:33:31;6.30;;;2.43;;
3261;SDS011;1643;47.746;9.000;2022-09-16T15:35:59;3.10;;;1.93;;
3261;SDS011;1643;47.746;9.000;2022-09-16T15:38:26;2.70;;;2.17;;
3261;SDS011;1643;47.746;9.000;2022-09-16T15:41:00;3.77;;;2.80;;
3261;SDS011;1643;47.746;9.000;2022-09-16T15:43:28;2.40;;;1.73;;
3261;SDS011;1643;47.746;9.000;2022-09-16T15:46:00;1.97;;;1.87;;
3261;SDS011;1643;47.746;9.000;2022-09-16T15:48:31;2.93;;;2.27;;
3261;SDS011;1643;47.746;9.000;2022-09-16T15:51:01;2.80;;;1.90;;
3261;SDS011;1643;47.746;9.000;2022-09-16T15:53:34;2.30;;;2.10;;
3261;SDS011;1643;47.746;9.000;2022-09-16T15:58:42;2.13;;;1.93;;
3261;SDS011;1643;47.746;9.000;2022-09-16T16:04:10;2.10;;;1.90;;
3261;SDS011;1643;47.746;9.000;2022-09-16T16:09:41;2.03;;;1.93;;
3261;SDS011;1643;47.746;9.000;2022-09-16T16:12:09;2.17;;;1.87;;
3261;SDS011;1643;47.746;9.000;2022-09-16T16:14:40;2.87;;;2.20;;
3261;SDS011;1643;47.746;9.000;2022-09-16T16:19:33;2.63;;;2.20;;
3261;SDS011;1643;47.746;9.000;2022-09-16T16:22:00;4.50;;;2.70;;
3261;SDS011;1643;47.746;9.000;2022-09-16T16:24:26;2.67;;;2.30;;
3261;SDS011;1643;47.746;9.000;2022-09-16T16:26:54;2.43;;;2.27;;
3261;SDS011;1643;47.746;9.000;2022-09-16T16:29:20;2.30;;;2.20;;
3261;SDS011;1643;47.746;9.000;2022-09-16T16:34:23;2.60;;;2.40;;
3261;SDS011;1643;47.746;9.000;2022-09-16T16:36:49;2.30;;;2.10;;
3261;SDS011;1643;47.746;9.000;2022-09-16T16:39:14;2.27;;;1.80;;
3261;SDS011;1643;47.746;9.000;2022-09-16T16:41:40;1.80;;;1.70;;
3261;SDS011;1643;47.746;9.000;2022-09-16T16:44:06;2.80;;;1.60;;
3261;SDS011;1643;47.746;9.000;2022-09-16T16:46:31;2.87;;;1.90;;
3261;SDS011;1643;47.746;9.000;2022-09-16T16:48:57;2.57;;;1.90;;
3261;SDS011;1643;47.746;9.000;2022-09-16T16:51:22;2.00;;;1.80;;
3261;SDS011;1643;47.746;9.000;2022-09-16T16:53:48;1.80;;;1.70;;
3261;SDS011;1643;47.746;9.000;2022-09-16T16:56:14;2.30;;;2.10;;
3261;SDS011;1643;47.746;9.000;2022-09-16T16:58:40;2.93;;;1.50;;
3261;SDS011;1643;47.746;9.000;2022-09-16T17:01:13;2.10;;;2.00;;
3261;SDS011;1643;47.746;9.000;2022-09-16T17:03:41;3.33;;;2.03;;
3261;SDS011;1643;47.746;9.000;2022-09-16T17:06:08;1.93;;;1.80;;
3261;SDS011;1643;47.746;9.000;2022-09-16T17:08:34;1.70;;;1.60;;
3261;SDS011;1643;47.746;9.000;2022-09-16T17:11:10;1.97;;;1.87;;
3261;SDS011;1643;47.746;9.000;2022-09-16T17:13:38;2.50;;;2.20;;
3261;SDS011;1643;47.746;9.000;2022-09-16T17:16:05;4.93;;;1.97;;
3261;SDS011;1643;47.746;9.000;2022-09-16T17:18:33;3.10;;;2.20;;
3261;SDS011;1643;47.746;9.000;2022-09-16T17:21:03;3.27;;;2.30;;
3261;SDS011;1643;47.746;9.000;2022-09-16T17:23:30;2.00;;;1.90;;
3261;SDS011;1643;47.746;9.000;2022-09-16T17:25:56;2.30;;;2.10;;
3261;SDS011;1643;47.746;9.000;2022-09-16T17:28:22;2.60;;;2.40;;
3261;SDS011;1643;47.746;9.000;2022-09-16T17:30:47;2.40;;;2.20;;
3261;SDS011;1643;47.746;9.000;2022-09-16T17:33:13;2.70;;;2.50;;
3261;SDS011;1643;47.746;9.000;2022-09-16T17:35:39;3.03;;;2.70;;
3261;SDS011;1643;47.746;9.000;2022-09-16T17:38:05;4.67;;;2.80;;
3261;SDS011;1643;47.746;9.000;2022-09-16T17:40:31;2.67;;;2.47;;
3261;SDS011;1643;47.746;9.000;2022-09-16T17:42:57;2.53;;;2.33;;
3261;SDS011;1643;47.746;9.000;2022-09-16T17:45:22;5.33;;;2.33;;
3261;SDS011;1643;47.746;9.000;2022-09-16T17:47:48;2.57;;;2.40;;
3261;SDS011;1643;47.746;9.000;2022-09-16T17:50:15;3.37;;;2.53;;
3261;SDS011;1643;47.746;9.000;2022-09-16T17:52:42;2.53;;;2.33;;
3261;SDS011;1643;47.746;9.000;2022-09-16T17:55:08;2.40;;;2.20;;
3261;SDS011;1643;47.746;9.000;2022-09-16T17:57:35;5.20;;;2.63;;
3261;SDS011;1643;47.746;9.000;2022-09-16T18:00:01;3.70;;;2.40;;
3261;SDS011;1643;47.746;9.000;2022-09-16T18:02:28;3.70;;;2.67;;
3261;SDS011;1643;47.746;9.000;2022-09-16T18:04:53;8.43;;;2.77;;
3261;SDS011;1643;47.746;9.000;2022-09-16T18:07:19;2.67;;;2.47;;
3261;SDS011;1643;47.746;9.000;2022-09-16T18:09:44;2.87;;;2.43;;
3261;SDS011;1643;47.746;9.000;2022-09-16T18:12:10;2.50;;;2.30;;
3261;SDS011;1643;47.746;9.000;2022-09-16T18:14:36;3.47;;;2.47;;
3261;SDS011;1643;47.746;9.000;2022-09-16T18:17:01;2.77;;;2.57;;
3261;SDS011;1643;47.746;9.000;2022-09-16T18:19:27;3.27;;;2.77;;
3261;SDS011;1643;47.746;9.000;2022-09-16T18:21:53;4.13;;;3.60;;
3261;SDS011;1643;47.746;9.000;2022-09-16T18:24:19;3.37;;;2.30;;
3261;SDS011;1643;47.746;9.000;2022-09-16T18:26:44;2.97;;;2.70;;
3261;SDS011;1643;47.746;9.000;2022-09-16T18:29:11;3.10;;;2.80;;
3261;SDS011;1643;47.746;9.000;2022-09-16T18:31:38;2.97;;;2.77;;
3261;SDS011;1643;47.746;9.000;2022-09-16T18:34:05;3.20;;;2.73;;
3261;SDS011;1643;47.746;9.000;2022-09-16T18:36:31;4.73;;;2.80;;
3261;SDS011;1643;47.746;9.000;2022-09-16T18:38:59;4.27;;;2.90;;
3261;SDS011;1643;47.746;9.000;2022-09-16T18:41:26;4.93;;;3.00;;
3261;SDS011;1643;47.746;9.000;2022-09-16T18:43:54;3.43;;;2.97;;